Main page
METAR-TAF:

METAR-TAF

Airports :

Jersey Airport

Jersey,

latitude: 49-13N, longitude: 002-12W, elevation: 84 m

Current weather observation

The report was made 31 minutes ago, at 20:50 UTC
Wind 11 kt from the South
Temperature 12°C
Humidity 88%
Pressure 1026 hPa
Visibility 10 km or more

METAR: EGJJ 132050Z AUTO 19011KT 9999 NCD 12/10 Q1026

Time: 21:21 (21:21 UTC)

Forecast

The report was made 1 hour and 21 minutes ago, at 20:00 UTC
Forecast valid from 13 at 21 UTC to 14 at 06 UTC
Wind 12 kt from the South
Visibility 10 km or more
Few clouds at a height of 1500 ft
Becoming
from 14 at 03 UTC to 14 at 05 UTC
Visibility: 7000 m
Broken clouds at a height of 800 ft
Probability 40% :
Temporary
from 14 at 03 UTC to 14 at 06 UTC
Visibility: 2000 m
Broken clouds at a height of 200 ft
mist

TAF: EGJJ 132000Z 1321/1406 19012KT 9999 FEW015 BECMG 1403/1405 7000 BKN008 PROB40 TEMPO 1403/1406 2000 BR BKN002

Weather observations and forecasts of more than 4000 airports (METAR and TAF reports).

The available stations are represented by yellow and red dots on the map.

Hover mouse over dot to see the name of the station.

Then click to see weather observations and forecasts.

To change the map : click on the green buttons with a black cross to zoom in, on the green button with a dash to zoom out, or on the green arrows for adjacent maps.


METAR-TAF: